createdAt,value
2019-06-20T00:00:28.809Z,10.75
2019-06-20T00:03:00.278Z,12.03
2019-06-20T00:05:28.964Z,14.10
2019-06-20T00:07:58.700Z,12.25
2019-06-20T00:10:27.566Z,14.35
2019-06-20T00:13:00.587Z,13.48
2019-06-20T00:15:26.783Z,20.30
2019-06-20T00:17:55.357Z,19.35
2019-06-20T00:20:23.769Z,24.30
2019-06-20T00:22:52.199Z,20.48
2019-06-20T00:25:20.537Z,19.75
2019-06-20T00:27:48.682Z,18.62
2019-06-20T00:30:17.265Z,20.65
2019-06-20T00:32:46.055Z,15.57
2019-06-20T00:35:14.455Z,19.67
2019-06-20T00:37:43.392Z,18.13
2019-06-20T00:40:12.242Z,16.03
2019-06-20T00:42:41.028Z,13.32
2019-06-20T00:45:10.002Z,14.90
2019-06-20T00:47:38.607Z,19.10
2019-06-20T00:50:07.301Z,16.62
2019-06-20T00:52:35.874Z,18.13
2019-06-20T00:55:04.726Z,15.55
2019-06-20T00:57:33.123Z,13.72
2019-06-20T01:00:01.610Z,16.30
2019-06-20T01:02:30.467Z,16.65
2019-06-20T01:04:59.279Z,14.20
2019-06-20T01:07:28.149Z,13.83
2019-06-20T01:09:56.711Z,14.05
2019-06-20T01:12:25.033Z,15.55
2019-06-20T01:14:53.273Z,18.35
2019-06-20T01:17:21.703Z,16.67
2019-06-20T01:19:50.468Z,15.58
2019-06-20T01:22:19.410Z,16.30
2019-06-20T01:24:47.709Z,18.35
2019-06-20T01:27:16.124Z,14.38
2019-06-20T01:29:44.467Z,21.15
2019-06-20T01:32:12.906Z,15.83
2019-06-20T01:34:41.227Z,14.65
2019-06-20T01:37:10.869Z,15.00
2019-06-20T01:39:39.302Z,14.23
2019-06-20T01:42:09.096Z,17.90
2019-06-20T01:44:37.785Z,16.20
2019-06-20T01:47:07.102Z,15.70
2019-06-20T01:49:35.553Z,16.73
2019-06-20T01:52:04.081Z,14.10
2019-06-20T01:54:32.846Z,17.52
2019-06-20T01:57:01.681Z,18.67
2019-06-20T01:59:30.281Z,16.45
2019-06-20T02:01:58.666Z,19.50
2019-06-20T02:04:27.967Z,14.95
2019-06-20T02:06:56.626Z,14.07
2019-06-20T02:09:26.386Z,13.73
2019-06-20T02:11:55.027Z,16.43
2019-06-20T02:14:23.599Z,15.32
2019-06-20T02:16:52.081Z,15.70
2019-06-20T02:19:21.085Z,15.78
2019-06-20T02:21:49.927Z,15.95
2019-06-20T02:24:18.606Z,15.87
2019-06-20T02:26:47.046Z,13.85
2019-06-20T02:29:15.787Z,17.67
2019-06-20T02:31:44.556Z,19.02
2019-06-20T02:34:13.208Z,17.82
2019-06-20T02:36:41.935Z,17.07
2019-06-20T02:39:10.712Z,13.27
2019-06-20T02:41:39.325Z,13.55
2019-06-20T02:44:24.707Z,17.37
2019-06-20T02:46:38.782Z,14.20
2019-06-20T02:49:07.421Z,17.37
2019-06-20T02:51:36.375Z,14.90
2019-06-20T02:54:04.722Z,18.45
2019-06-20T02:56:33.249Z,16.77
2019-06-20T02:59:02.054Z,18.65
2019-06-20T03:01:30.546Z,19.07
2019-06-20T03:03:59.234Z,18.02
2019-06-20T03:06:28.269Z,17.67
2019-06-20T03:08:57.498Z,17.42
2019-06-20T03:11:25.834Z,15.00
2019-06-20T03:13:54.229Z,17.17
2019-06-20T03:16:22.652Z,14.05
2019-06-20T03:18:51.703Z,15.03
2019-06-20T03:21:20.637Z,16.90
2019-06-20T03:23:49.629Z,14.25
2019-06-20T03:26:18.378Z,16.27
2019-06-20T03:28:47.170Z,16.20
2019-06-20T03:31:15.681Z,15.30
2019-06-20T03:33:44.060Z,17.90
2019-06-20T03:36:12.453Z,20.57
2019-06-20T03:38:41.238Z,16.70
2019-06-20T03:41:10.187Z,16.17
2019-06-20T03:43:39.118Z,15.63
2019-06-20T03:46:07.599Z,17.07
2019-06-20T03:48:36.169Z,17.75
2019-06-20T03:51:04.587Z,14.50
2019-06-20T03:53:33.773Z,14.50
2019-06-20T03:56:02.361Z,15.83
2019-06-20T03:58:31.291Z,18.93
2019-06-20T04:01:00.081Z,16.13
2019-06-20T04:03:28.969Z,23.07
2019-06-20T04:05:57.797Z,19.40
2019-06-20T04:08:26.956Z,22.37
2019-06-20T04:10:55.550Z,20.60
2019-06-20T04:13:23.982Z,17.83
2019-06-20T04:15:52.338Z,19.43
2019-06-20T04:18:20.639Z,16.73
2019-06-20T04:20:49.465Z,19.10
2019-06-20T04:23:18.765Z,16.40
2019-06-20T04:25:47.291Z,15.60
2019-06-20T04:28:17.105Z,18.73
2019-06-20T04:30:45.614Z,20.62
2019-06-20T04:33:14.741Z,18.10
2019-06-20T04:35:43.354Z,18.20
2019-06-20T04:38:11.693Z,18.95
2019-06-20T04:40:40.084Z,23.05
2019-06-20T04:43:08.527Z,25.17
2019-06-20T04:46:00.849Z,23.25
2019-06-20T04:48:29.537Z,24.57
2019-06-20T04:50:58.318Z,23.20
2019-06-20T04:53:27.270Z,23.87
2019-06-20T04:55:55.954Z,26.23
2019-06-20T04:58:24.514Z,21.35
2019-06-20T05:00:52.983Z,25.35
2019-06-20T05:03:21.366Z,23.27
2019-06-20T05:05:50.191Z,21.00
2019-06-20T05:08:18.714Z,17.32
2019-06-20T05:10:47.601Z,17.15
2019-06-20T05:13:16.071Z,14.55
2019-06-20T05:15:52.464Z,15.53
2019-06-20T05:18:14.980Z,18.12
2019-06-20T05:20:43.736Z,15.60
2019-06-20T05:23:12.349Z,14.95
2019-06-20T05:25:40.760Z,20.70
2019-06-20T05:28:09.378Z,19.00
2019-06-20T05:30:38.117Z,14.38
2019-06-20T05:33:07.167Z,12.98
2019-06-20T05:35:35.685Z,12.40
2019-06-20T05:38:04.384Z,12.65
2019-06-20T05:40:36.880Z,19.73
2019-06-20T05:43:03.684Z,16.65
2019-06-20T05:45:31.935Z,17.65
2019-06-20T05:48:00.686Z,18.65
2019-06-20T05:50:29.204Z,20.10
2019-06-20T05:52:57.805Z,15.18
2019-06-20T05:55:26.197Z,18.65
2019-06-20T05:57:54.568Z,13.08
2019-06-20T06:00:23.223Z,14.03
2019-06-20T06:02:51.583Z,12.95
2019-06-20T06:05:20.928Z,13.48
2019-06-20T06:07:49.317Z,13.58
2019-06-20T06:10:17.858Z,11.08
2019-06-20T06:12:46.699Z,13.10
2019-06-20T06:15:15.582Z,11.15
2019-06-20T06:17:44.458Z,12.10
2019-06-20T06:20:14.831Z,11.48
2019-06-20T06:22:44.778Z,13.93
2019-06-20T06:25:13.858Z,12.63
2019-06-20T06:27:45.086Z,14.47
2019-06-20T06:30:14.212Z,12.30
2019-06-20T06:32:42.946Z,11.28
2019-06-20T06:35:11.802Z,12.90
2019-06-20T06:37:44.493Z,11.43
2019-06-20T06:40:14.715Z,12.73
2019-06-20T06:42:43.584Z,15.43
2019-06-20T06:45:12.686Z,14.35
2019-06-20T06:47:41.599Z,15.58
2019-06-20T06:50:10.581Z,13.03
2019-06-20T06:52:39.136Z,14.03
2019-06-20T06:55:10.088Z,11.57
2019-06-20T06:57:38.670Z,12.03
2019-06-20T07:00:08.730Z,14.23
2019-06-20T07:02:37.238Z,12.33
2019-06-20T07:05:06.114Z,14.13
2019-06-20T07:07:35.053Z,15.98
2019-06-20T07:10:04.153Z,14.20
2019-06-20T07:12:32.637Z,15.40
2019-06-20T07:15:01.033Z,13.72
2019-06-20T07:17:29.798Z,13.83
2019-06-20T07:19:58.789Z,17.77
2019-06-20T07:22:27.399Z,10.30
2019-06-20T07:24:55.872Z,12.90
2019-06-20T07:27:24.508Z,11.93
2019-06-20T07:29:53.237Z,14.30
2019-06-20T07:32:21.864Z,10.80
2019-06-20T07:34:50.440Z,12.00
2019-06-20T07:37:20.210Z,11.05
2019-06-20T07:39:49.210Z,12.10
2019-06-20T07:42:18.059Z,11.05
2019-06-20T07:44:46.577Z,9.10
2019-06-20T07:47:17.991Z,15.60
2019-06-20T07:49:45.418Z,14.53
2019-06-20T07:52:14.029Z,15.25
2019-06-20T07:54:42.814Z,16.42
2019-06-20T07:57:11.247Z,17.12
2019-06-20T07:59:40.228Z,13.75
2019-06-20T08:02:08.822Z,12.13
2019-06-20T08:04:37.096Z,13.13
2019-06-20T08:07:05.656Z,15.83
2019-06-20T08:09:44.889Z,12.30
2019-06-20T08:12:04.903Z,10.58
2019-06-20T08:14:33.492Z,9.43
2019-06-20T08:17:02.120Z,14.55
2019-06-20T08:19:30.837Z,9.68
2019-06-20T08:21:59.612Z,15.20
2019-06-20T08:24:28.170Z,14.60
2019-06-20T08:26:58.414Z,13.05
2019-06-20T08:29:27.253Z,11.35
2019-06-20T08:31:57.973Z,19.42
2019-06-20T08:34:26.746Z,13.15
2019-06-20T08:36:57.698Z,11.50
2019-06-20T08:39:29.377Z,14.60
2019-06-20T08:41:59.179Z,11.63
2019-06-20T08:44:29.478Z,16.17
2019-06-20T08:46:59.267Z,16.82
2019-06-20T08:49:28.544Z,15.13
2019-06-20T08:51:57.435Z,14.35
2019-06-20T08:54:26.055Z,11.45
2019-06-20T08:56:56.105Z,11.28
2019-06-20T08:59:25.500Z,10.43
2019-06-20T09:01:56.510Z,9.53
2019-06-20T09:04:24.750Z,11.15
2019-06-20T09:06:55.250Z,9.70
2019-06-20T09:09:23.653Z,10.40
2019-06-20T09:11:52.096Z,14.33
2019-06-20T09:14:20.693Z,13.13
2019-06-20T09:16:49.187Z,10.68
2019-06-20T09:19:18.455Z,7.72
2019-06-20T09:21:47.129Z,9.48
2019-06-20T09:24:15.757Z,10.70
2019-06-20T09:26:44.210Z,8.68
2019-06-20T09:29:13.077Z,11.97
2019-06-20T09:31:41.876Z,10.78
2019-06-20T09:34:10.642Z,10.00
2019-06-20T09:36:39.809Z,11.95
2019-06-20T09:39:09.424Z,14.65
2019-06-20T09:41:38.341Z,10.85
2019-06-20T09:44:06.785Z,12.58
2019-06-20T09:46:35.178Z,9.88
2019-06-20T09:49:03.914Z,10.80
2019-06-20T09:51:32.907Z,11.43
2019-06-20T09:54:01.564Z,11.18
2019-06-20T09:56:30.301Z,11.12
2019-06-20T09:58:59.017Z,8.48
2019-06-20T10:01:27.626Z,7.65
2019-06-20T10:03:56.784Z,10.08
2019-06-20T10:06:26.574Z,9.60
2019-06-20T10:08:56.543Z,9.93
2019-06-20T10:11:25.473Z,10.50
2019-06-20T10:13:54.349Z,12.63
2019-06-20T10:16:23.713Z,20.08
2019-06-20T10:18:52.306Z,11.53
2019-06-20T10:21:21.051Z,17.52
2019-06-20T10:23:49.695Z,13.70
2019-06-20T10:26:18.121Z,7.35
2019-06-20T10:28:48.116Z,9.53
2019-06-20T10:31:17.885Z,8.48
2019-06-20T10:33:46.860Z,8.80
2019-06-20T10:36:15.651Z,10.25
2019-06-20T10:38:45.332Z,10.88
2019-06-20T10:41:14.573Z,10.72
2019-06-20T10:43:42.992Z,7.08
2019-06-20T10:46:12.527Z,12.93
2019-06-20T10:48:42.529Z,6.92
2019-06-20T10:51:29.636Z,9.58
2019-06-20T10:53:58.617Z,7.62
2019-06-20T10:56:27.316Z,8.73
2019-06-20T10:58:56.332Z,11.20
2019-06-20T11:01:24.990Z,6.87
2019-06-20T11:03:53.722Z,7.70
2019-06-20T11:06:22.351Z,7.83
2019-06-20T11:08:51.052Z,5.95
2019-06-20T11:11:19.445Z,6.65
2019-06-20T11:13:48.604Z,7.72
2019-06-20T11:16:19.352Z,7.30
2019-06-20T11:18:48.800Z,5.33
2019-06-20T11:21:18.786Z,8.38
2019-06-20T11:23:48.424Z,7.85
2019-06-20T11:26:17.033Z,10.10
2019-06-20T11:28:45.799Z,13.58
2019-06-20T11:31:15.067Z,5.45
2019-06-20T11:33:44.160Z,8.45
2019-06-20T11:36:13.373Z,6.05
2019-06-20T11:38:42.547Z,10.05
2019-06-20T11:41:11.657Z,7.62
2019-06-20T11:43:40.310Z,6.50
2019-06-20T11:46:09.035Z,9.33
2019-06-20T11:48:38.448Z,8.90
2019-06-20T11:51:06.984Z,9.40
2019-06-20T11:53:36.464Z,8.25
2019-06-20T11:56:05.612Z,9.95
2019-06-20T11:58:34.221Z,7.83
2019-06-20T12:01:04.320Z,16.73
2019-06-20T12:03:33.096Z,10.98
2019-06-20T12:06:01.664Z,5.08
2019-06-20T12:08:30.577Z,6.25
2019-06-20T12:11:00.600Z,8.55
2019-06-20T12:13:30.433Z,5.30
2019-06-20T12:15:59.516Z,7.08
2019-06-20T12:18:27.976Z,6.75
2019-06-20T12:20:58.105Z,5.72
2019-06-20T12:23:26.699Z,8.65
2019-06-20T12:25:58.928Z,6.70
2019-06-20T12:28:27.836Z,6.90
2019-06-20T12:30:56.366Z,7.22
2019-06-20T12:33:26.303Z,6.60
2019-06-20T12:35:57.806Z,5.00
2019-06-20T12:38:26.205Z,5.25
2019-06-20T12:40:54.825Z,5.12
2019-06-20T12:43:27.923Z,6.45
2019-06-20T12:45:57.179Z,5.80
2019-06-20T12:48:28.772Z,6.00
2019-06-20T12:50:57.069Z,5.95
2019-06-20T12:53:25.254Z,6.45
2019-06-20T12:55:53.677Z,8.95
2019-06-20T12:58:25.496Z,5.33
2019-06-20T13:00:53.746Z,10.48
2019-06-20T13:03:23.089Z,8.40
2019-06-20T13:05:53.519Z,9.75
2019-06-20T13:08:21.988Z,9.40
2019-06-20T13:10:51.637Z,8.73
2019-06-20T13:13:20.014Z,8.88
2019-06-20T13:15:52.143Z,7.47
2019-06-20T13:18:21.455Z,8.08
2019-06-20T13:20:50.384Z,9.05
2019-06-20T13:23:18.812Z,5.80
2019-06-20T13:25:48.758Z,11.83
2019-06-20T13:28:17.347Z,5.92
2019-06-20T13:30:49.925Z,6.90
2019-06-20T13:33:16.689Z,7.92
2019-06-20T13:35:45.377Z,9.30
2019-06-20T13:38:13.999Z,7.87
2019-06-20T13:40:43.095Z,7.10
2019-06-20T13:43:11.983Z,7.12
2019-06-20T13:45:41.202Z,6.00
2019-06-20T13:48:10.908Z,7.85
2019-06-20T13:50:40.419Z,4.55
2019-06-20T13:53:10.093Z,9.30
2019-06-20T13:55:39.466Z,6.37
2019-06-20T13:58:09.325Z,7.70
2019-06-20T14:00:38.026Z,8.65
2019-06-20T14:03:07.017Z,6.05
2019-06-20T14:05:35.645Z,6.78
2019-06-20T14:08:04.032Z,4.20
2019-06-20T14:10:33.366Z,6.28
2019-06-20T14:13:15.556Z,7.05
2019-06-20T14:15:34.124Z,7.75
2019-06-20T14:18:02.822Z,8.08
2019-06-20T14:20:31.446Z,7.00
2019-06-20T14:22:59.790Z,10.03
2019-06-20T14:25:28.342Z,7.45
2019-06-20T14:27:56.856Z,8.25
2019-06-20T14:30:25.469Z,7.97
2019-06-20T14:32:55.610Z,7.15
2019-06-20T14:35:24.473Z,7.00
2019-06-20T14:37:53.343Z,7.33
2019-06-20T14:40:21.864Z,8.63
2019-06-20T14:42:50.526Z,5.22
2019-06-20T14:45:20.347Z,6.00
2019-06-20T14:47:49.105Z,8.00
2019-06-20T14:50:17.540Z,6.97
2019-06-20T14:52:46.639Z,5.30
2019-06-20T14:55:16.472Z,7.50
2019-06-20T14:57:46.462Z,8.85
2019-06-20T15:00:15.801Z,5.12
2019-06-20T15:02:45.815Z,8.23
2019-06-20T15:05:15.393Z,5.33
2019-06-20T15:07:46.729Z,6.75
2019-06-20T15:10:15.188Z,8.35
2019-06-20T15:12:45.742Z,6.83
2019-06-20T15:15:13.948Z,9.38
2019-06-20T15:17:42.630Z,11.93
2019-06-20T15:20:13.004Z,7.55
2019-06-20T15:22:42.849Z,7.78
2019-06-20T15:25:12.336Z,5.45
2019-06-20T15:27:40.757Z,7.35
2019-06-20T15:30:10.023Z,6.15
2019-06-20T15:32:53.557Z,7.30
2019-06-20T15:35:09.590Z,6.75
2019-06-20T15:37:38.226Z,8.55
2019-06-20T15:40:06.992Z,5.37
2019-06-20T15:42:36.874Z,7.53
2019-06-20T15:45:05.759Z,7.28
2019-06-20T15:47:34.331Z,9.15
2019-06-20T15:50:03.103Z,11.20
2019-06-20T15:52:32.062Z,7.17
2019-06-20T15:55:00.634Z,8.63
2019-06-20T15:57:29.225Z,10.48
2019-06-20T15:59:57.901Z,11.55
2019-06-20T16:02:26.633Z,8.60
2019-06-20T16:04:57.156Z,11.90
2019-06-20T16:07:25.731Z,13.88
2019-06-20T16:09:54.324Z,7.22
2019-06-20T16:12:23.257Z,8.35
2019-06-20T16:14:51.945Z,8.95
2019-06-20T16:17:20.894Z,6.80
2019-06-20T16:22:45.043Z,8.00
2019-06-20T16:25:13.605Z,10.35
2019-06-20T16:27:42.045Z,7.22
2019-06-20T16:30:10.792Z,8.40
2019-06-20T16:32:39.454Z,8.60
2019-06-20T16:35:08.273Z,9.08
2019-06-20T16:37:36.500Z,9.50
2019-06-20T16:40:05.251Z,8.55
2019-06-20T16:42:34.005Z,10.68
2019-06-20T16:45:02.874Z,11.50
2019-06-20T16:47:36.733Z,9.40
2019-06-20T16:50:06.699Z,15.40
2019-06-20T16:52:34.976Z,9.05
2019-06-20T16:55:04.504Z,9.00
2019-06-20T16:57:36.063Z,7.53
2019-06-20T17:02:55.987Z,10.82
2019-06-20T17:05:25.429Z,8.70
2019-06-20T17:07:54.222Z,7.90
2019-06-20T17:10:23.247Z,9.53
2019-06-20T17:12:51.710Z,10.15
2019-06-20T17:15:20.629Z,8.25
2019-06-20T17:17:53.196Z,8.38
2019-06-20T17:20:22.291Z,11.10
2019-06-20T17:22:50.922Z,11.73
2019-06-20T17:25:19.971Z,8.90
2019-06-20T17:27:48.612Z,10.40
2019-06-20T17:30:17.648Z,8.83
2019-06-20T17:32:46.088Z,8.75
2019-06-20T17:35:16.187Z,8.55
2019-06-20T17:37:45.186Z,9.40
2019-06-20T17:40:14.396Z,9.43
2019-06-20T17:42:43.240Z,9.38
2019-06-20T17:45:12.404Z,12.23
2019-06-20T17:47:41.073Z,10.00
2019-06-20T17:50:10.373Z,9.18
2019-06-20T17:52:39.105Z,9.70
2019-06-20T17:55:07.700Z,9.55
2019-06-20T17:57:36.831Z,12.33
2019-06-20T18:00:08.264Z,7.17
2019-06-20T18:02:38.604Z,9.03
2019-06-20T18:05:07.813Z,13.08
2019-06-20T18:07:37.321Z,8.13
2019-06-20T18:10:07.197Z,10.30
2019-06-20T18:12:35.866Z,9.63
2019-06-20T18:15:04.979Z,11.88
2019-06-20T18:17:33.742Z,10.28
2019-06-20T18:20:02.635Z,11.28
2019-06-20T18:22:31.084Z,11.63
2019-06-20T18:24:59.606Z,13.60
2019-06-20T18:27:28.179Z,11.18
2019-06-20T18:29:56.891Z,11.93
2019-06-20T18:32:25.650Z,12.00
2019-06-20T18:35:01.970Z,11.12
2019-06-20T18:37:31.314Z,10.50
2019-06-20T18:40:00.309Z,12.78
2019-06-20T18:42:33.814Z,15.65
2019-06-20T18:45:03.808Z,38.05
2019-06-20T18:47:32.018Z,12.13
2019-06-20T18:50:03.680Z,10.00
2019-06-20T18:52:50.949Z,11.03
2019-06-20T18:55:06.977Z,10.82
2019-06-20T18:57:38.919Z,11.65
2019-06-20T19:00:08.344Z,10.05
2019-06-20T19:02:37.060Z,9.98
2019-06-20T19:05:05.705Z,10.35
2019-06-20T19:07:34.284Z,11.60
2019-06-20T19:10:02.742Z,9.60
2019-06-20T19:12:31.257Z,12.10
2019-06-20T19:14:59.491Z,15.08
2019-06-20T19:17:27.773Z,14.18
2019-06-20T19:19:55.965Z,11.53
2019-06-20T19:22:25.127Z,13.13
2019-06-20T19:24:53.277Z,10.93
2019-06-20T19:27:21.613Z,13.62
2019-06-20T19:29:49.952Z,15.53
2019-06-20T19:32:19.404Z,10.20
2019-06-20T19:35:00.946Z,11.38
2019-06-20T19:37:19.043Z,11.83
2019-06-20T19:39:47.694Z,12.37
2019-06-20T19:42:16.111Z,11.33
2019-06-20T19:44:45.127Z,11.78
2019-06-20T19:47:13.756Z,18.75
2019-06-20T19:49:42.382Z,11.53
2019-06-20T19:52:10.794Z,11.50
2019-06-20T19:54:39.442Z,14.38
2019-06-20T19:57:12.065Z,17.02
2019-06-20T19:59:40.670Z,13.20
2019-06-20T20:02:09.928Z,12.20
2019-06-20T20:04:41.000Z,11.90
2019-06-20T20:07:11.917Z,13.58
2019-06-20T20:09:41.033Z,13.35
2019-06-20T20:12:10.058Z,11.15
2019-06-20T20:14:38.873Z,14.80
2019-06-20T20:17:07.800Z,12.30
2019-06-20T20:19:36.308Z,15.18
2019-06-20T20:22:06.660Z,11.12
2019-06-20T20:24:35.122Z,14.23
2019-06-20T20:27:07.703Z,10.85
2019-06-20T20:29:36.481Z,12.70
2019-06-20T20:32:04.832Z,14.60
2019-06-20T20:34:33.173Z,13.13
2019-06-20T20:37:01.684Z,16.02
2019-06-20T20:39:30.530Z,14.03
2019-06-20T20:41:59.102Z,13.50
2019-06-20T20:44:28.096Z,16.17
2019-06-20T20:46:56.805Z,13.93
2019-06-20T20:49:25.436Z,12.78
2019-06-20T20:51:54.163Z,15.53
2019-06-20T20:54:23.941Z,13.80
2019-06-20T20:56:54.236Z,13.43
2019-06-20T20:59:23.188Z,15.18
2019-06-20T21:01:52.049Z,14.98
2019-06-20T21:04:20.834Z,13.35
2019-06-20T21:06:49.297Z,11.75
2019-06-20T21:09:18.813Z,18.12
2019-06-20T21:11:47.848Z,18.23
2019-06-20T21:14:16.463Z,14.60
2019-06-20T21:16:45.189Z,12.80
2019-06-20T21:19:13.600Z,18.15
2019-06-20T21:21:42.184Z,13.22
2019-06-20T21:24:11.228Z,18.02
2019-06-20T21:26:49.549Z,12.88
2019-06-20T21:29:11.730Z,15.28
2019-06-20T21:31:41.980Z,15.53
2019-06-20T21:34:10.493Z,18.98
2019-06-20T21:36:38.813Z,13.65
2019-06-20T21:39:08.197Z,18.30
2019-06-20T21:41:36.814Z,15.48
2019-06-20T21:44:05.503Z,13.20
2019-06-20T21:46:34.369Z,13.45
2019-06-20T21:49:03.009Z,14.05
2019-06-20T21:51:31.850Z,13.40
2019-06-20T21:54:00.405Z,17.95
2019-06-20T21:56:28.813Z,15.43
2019-06-20T21:58:57.434Z,13.93
2019-06-20T22:01:26.327Z,15.25
2019-06-20T22:03:55.170Z,11.70
2019-06-20T22:06:24.301Z,15.80
2019-06-20T22:08:52.791Z,12.45
2019-06-20T22:11:21.183Z,16.20
2019-06-20T22:13:49.915Z,14.78
2019-06-20T22:16:18.352Z,17.48
2019-06-20T22:18:46.981Z,12.23
2019-06-20T22:21:15.973Z,12.30
2019-06-20T22:23:44.732Z,11.00
2019-06-20T22:26:13.221Z,15.65
2019-06-20T22:28:42.033Z,11.53
2019-06-20T22:31:10.572Z,13.10
2019-06-20T22:33:39.363Z,11.93
2019-06-20T22:36:08.327Z,13.22
2019-06-20T22:38:36.943Z,10.18
2019-06-20T22:41:05.468Z,12.00
2019-06-20T22:43:34.103Z,13.00
2019-06-20T22:46:02.695Z,10.48
2019-06-20T22:48:31.256Z,11.30
2019-06-20T22:50:59.925Z,16.62
2019-06-20T22:53:28.740Z,12.88
2019-06-20T22:55:57.442Z,13.13
2019-06-20T22:58:26.157Z,13.22
2019-06-20T23:00:54.895Z,14.20
2019-06-20T23:03:23.239Z,18.23
2019-06-20T23:05:51.863Z,18.05
2019-06-20T23:08:20.648Z,13.48
2019-06-20T23:10:49.417Z,14.55
2019-06-20T23:13:18.127Z,12.88
2019-06-20T23:15:46.744Z,11.40
2019-06-20T23:18:15.497Z,14.15
2019-06-20T23:21:03.370Z,13.90
2019-06-20T23:23:14.709Z,16.50
2019-06-20T23:25:46.137Z,11.85
2019-06-20T23:28:15.105Z,15.15
2019-06-20T23:30:44.661Z,15.63
2019-06-20T23:33:13.401Z,14.25
2019-06-20T23:35:42.001Z,11.12
2019-06-20T23:38:11.323Z,10.82
2019-06-20T23:40:40.081Z,9.40
2019-06-20T23:43:09.009Z,11.10
2019-06-20T23:45:37.591Z,9.75
2019-06-20T23:48:06.062Z,10.10
2019-06-20T23:50:34.766Z,8.60
2019-06-20T23:53:12.449Z,8.65
2019-06-20T23:55:41.134Z,10.65
2019-06-20T23:58:09.785Z,9.95
